sensor_id;sensor_type;location;lat;lon;timestamp;P1;durP1;ratioP1;P2;durP2;ratioP2
11211;SDS011;5663;50.864;12.096;2022-12-07T00:01:11;14.40;;;9.73;;
11211;SDS011;5663;50.864;12.096;2022-12-07T00:03:40;13.57;;;8.63;;
11211;SDS011;5663;50.864;12.096;2022-12-07T00:06:10;10.27;;;7.77;;
11211;SDS011;5663;50.864;12.096;2022-12-07T00:08:40;13.50;;;9.17;;
11211;SDS011;5663;50.864;12.096;2022-12-07T00:11:09;12.83;;;8.90;;
11211;SDS011;5663;50.864;12.096;2022-12-07T00:13:38;15.20;;;9.13;;
11211;SDS011;5663;50.864;12.096;2022-12-07T00:16:07;12.47;;;8.30;;
11211;SDS011;5663;50.864;12.096;2022-12-07T00:18:38;14.23;;;9.10;;
11211;SDS011;5663;50.864;12.096;2022-12-07T00:21:07;13.17;;;8.93;;
11211;SDS011;5663;50.864;12.096;2022-12-07T00:23:38;11.70;;;8.27;;
11211;SDS011;5663;50.864;12.096;2022-12-07T00:26:09;12.13;;;8.33;;
11211;SDS011;5663;50.864;12.096;2022-12-07T00:28:38;12.97;;;8.77;;
11211;SDS011;5663;50.864;12.096;2022-12-07T00:31:06;10.93;;;7.70;;
11211;SDS011;5663;50.864;12.096;2022-12-07T00:33:35;11.87;;;8.40;;
11211;SDS011;5663;50.864;12.096;2022-12-07T00:36:10;14.20;;;9.20;;
11211;SDS011;5663;50.864;12.096;2022-12-07T00:38:39;12.23;;;8.50;;
11211;SDS011;5663;50.864;12.096;2022-12-07T00:41:08;15.70;;;9.10;;
11211;SDS011;5663;50.864;12.096;2022-12-07T00:43:38;12.93;;;8.77;;
11211;SDS011;5663;50.864;12.096;2022-12-07T00:46:06;14.57;;;8.60;;
11211;SDS011;5663;50.864;12.096;2022-12-07T00:48:33;11.80;;;8.53;;
11211;SDS011;5663;50.864;12.096;2022-12-07T00:51:01;13.77;;;8.57;;
11211;SDS011;5663;50.864;12.096;2022-12-07T00:53:31;12.40;;;8.27;;
11211;SDS011;5663;50.864;12.096;2022-12-07T00:56:04;11.83;;;8.47;;
11211;SDS011;5663;50.864;12.096;2022-12-07T00:58:32;11.80;;;7.80;;
11211;SDS011;5663;50.864;12.096;2022-12-07T01:01:00;12.27;;;7.73;;
11211;SDS011;5663;50.864;12.096;2022-12-07T01:03:29;11.43;;;7.97;;
11211;SDS011;5663;50.864;12.096;2022-12-07T01:05:57;11.20;;;7.33;;
11211;SDS011;5663;50.864;12.096;2022-12-07T01:08:41;11.57;;;7.43;;
11211;SDS011;5663;50.864;12.096;2022-12-07T01:11:11;9.93;;;7.30;;
11211;SDS011;5663;50.864;12.096;2022-12-07T01:13:44;10.50;;;7.20;;
11211;SDS011;5663;50.864;12.096;2022-12-07T01:16:13;13.67;;;7.37;;
11211;SDS011;5663;50.864;12.096;2022-12-07T01:18:42;10.57;;;6.80;;
11211;SDS011;5663;50.864;12.096;2022-12-07T01:21:14;9.90;;;6.80;;
11211;SDS011;5663;50.864;12.096;2022-12-07T01:23:44;10.47;;;7.10;;
11211;SDS011;5663;50.864;12.096;2022-12-07T01:26:12;11.27;;;7.10;;
11211;SDS011;5663;50.864;12.096;2022-12-07T01:28:42;10.47;;;6.83;;
11211;SDS011;5663;50.864;12.096;2022-12-07T01:31:11;10.13;;;6.53;;
11211;SDS011;5663;50.864;12.096;2022-12-07T01:33:42;10.03;;;6.40;;
11211;SDS011;5663;50.864;12.096;2022-12-07T01:36:12;9.97;;;6.87;;
11211;SDS011;5663;50.864;12.096;2022-12-07T01:38:42;8.40;;;5.90;;
11211;SDS011;5663;50.864;12.096;2022-12-07T01:41:12;12.37;;;7.10;;
11211;SDS011;5663;50.864;12.096;2022-12-07T01:44:08;11.73;;;7.40;;
11211;SDS011;5663;50.864;12.096;2022-12-07T01:46:42;9.67;;;6.50;;
11211;SDS011;5663;50.864;12.096;2022-12-07T01:49:12;14.20;;;7.13;;
11211;SDS011;5663;50.864;12.096;2022-12-07T01:51:47;11.10;;;6.90;;
11211;SDS011;5663;50.864;12.096;2022-12-07T01:54:19;10.80;;;6.80;;
11211;SDS011;5663;50.864;12.096;2022-12-07T01:56:50;10.30;;;6.90;;
11211;SDS011;5663;50.864;12.096;2022-12-07T01:59:22;10.50;;;6.73;;
11211;SDS011;5663;50.864;12.096;2022-12-07T02:01:52;9.83;;;6.10;;
11211;SDS011;5663;50.864;12.096;2022-12-07T02:04:21;10.73;;;7.00;;
11211;SDS011;5663;50.864;12.096;2022-12-07T02:06:50;14.13;;;7.20;;
11211;SDS011;5663;50.864;12.096;2022-12-07T02:09:20;10.70;;;6.77;;
11211;SDS011;5663;50.864;12.096;2022-12-07T02:11:48;12.13;;;7.30;;
11211;SDS011;5663;50.864;12.096;2022-12-07T02:14:17;9.20;;;6.40;;
11211;SDS011;5663;50.864;12.096;2022-12-07T02:16:47;12.23;;;7.10;;
11211;SDS011;5663;50.864;12.096;2022-12-07T02:22:33;10.97;;;6.53;;
11211;SDS011;5663;50.864;12.096;2022-12-07T02:25:19;9.97;;;6.30;;
11211;SDS011;5663;50.864;12.096;2022-12-07T02:27:58;12.17;;;6.37;;
11211;SDS011;5663;50.864;12.096;2022-12-07T02:30:34;14.87;;;7.03;;
11211;SDS011;5663;50.864;12.096;2022-12-07T02:33:08;10.90;;;6.43;;
11211;SDS011;5663;50.864;12.096;2022-12-07T02:35:41;8.67;;;5.97;;
11211;SDS011;5663;50.864;12.096;2022-12-07T02:38:13;9.97;;;6.30;;
11211;SDS011;5663;50.864;12.096;2022-12-07T02:40:44;11.67;;;6.90;;
11211;SDS011;5663;50.864;12.096;2022-12-07T02:43:17;8.50;;;5.93;;
11211;SDS011;5663;50.864;12.096;2022-12-07T02:45:51;9.50;;;5.47;;
11211;SDS011;5663;50.864;12.096;2022-12-07T02:48:23;12.43;;;6.10;;
11211;SDS011;5663;50.864;12.096;2022-12-07T02:50:53;10.53;;;6.30;;
11211;SDS011;5663;50.864;12.096;2022-12-07T02:53:28;10.33;;;6.53;;
11211;SDS011;5663;50.864;12.096;2022-12-07T02:55:57;11.80;;;6.27;;
11211;SDS011;5663;50.864;12.096;2022-12-07T02:58:29;8.50;;;5.80;;
11211;SDS011;5663;50.864;12.096;2022-12-07T03:01:08;12.03;;;6.43;;
11211;SDS011;5663;50.864;12.096;2022-12-07T03:03:46;11.30;;;6.23;;
11211;SDS011;5663;50.864;12.096;2022-12-07T03:06:22;10.93;;;6.00;;
11211;SDS011;5663;50.864;12.096;2022-12-07T03:08:56;9.03;;;5.73;;
11211;SDS011;5663;50.864;12.096;2022-12-07T03:11:37;8.30;;;5.00;;
11211;SDS011;5663;50.864;12.096;2022-12-07T03:14:13;10.00;;;6.07;;
11211;SDS011;5663;50.864;12.096;2022-12-07T03:16:47;10.50;;;5.73;;
11211;SDS011;5663;50.864;12.096;2022-12-07T03:19:20;8.20;;;5.17;;
11211;SDS011;5663;50.864;12.096;2022-12-07T03:21:51;8.60;;;5.77;;
11211;SDS011;5663;50.864;12.096;2022-12-07T03:24:24;10.20;;;5.63;;
11211;SDS011;5663;50.864;12.096;2022-12-07T03:26:55;6.87;;;4.97;;
11211;SDS011;5663;50.864;12.096;2022-12-07T03:29:30;7.80;;;5.40;;
11211;SDS011;5663;50.864;12.096;2022-12-07T03:32:05;7.27;;;4.87;;
11211;SDS011;5663;50.864;12.096;2022-12-07T03:34:41;9.50;;;4.90;;
11211;SDS011;5663;50.864;12.096;2022-12-07T03:37:14;10.40;;;5.10;;
11211;SDS011;5663;50.864;12.096;2022-12-07T03:39:48;6.40;;;4.37;;
11211;SDS011;5663;50.864;12.096;2022-12-07T03:42:24;9.10;;;5.80;;
11211;SDS011;5663;50.864;12.096;2022-12-07T03:44:52;8.93;;;5.03;;
11211;SDS011;5663;50.864;12.096;2022-12-07T03:47:24;8.53;;;4.97;;
11211;SDS011;5663;50.864;12.096;2022-12-07T03:49:58;8.30;;;4.90;;
11211;SDS011;5663;50.864;12.096;2022-12-07T03:52:30;8.13;;;5.57;;
11211;SDS011;5663;50.864;12.096;2022-12-07T03:55:05;7.97;;;5.17;;
11211;SDS011;5663;50.864;12.096;2022-12-07T03:57:38;9.27;;;5.50;;
11211;SDS011;5663;50.864;12.096;2022-12-07T04:00:09;7.47;;;5.33;;
11211;SDS011;5663;50.864;12.096;2022-12-07T04:02:39;8.93;;;5.10;;
11211;SDS011;5663;50.864;12.096;2022-12-07T04:05:08;7.80;;;5.53;;
11211;SDS011;5663;50.864;12.096;2022-12-07T04:07:36;13.30;;;5.90;;
11211;SDS011;5663;50.864;12.096;2022-12-07T04:10:04;8.60;;;5.20;;
11211;SDS011;5663;50.864;12.096;2022-12-07T04:12:32;10.00;;;5.87;;
11211;SDS011;5663;50.864;12.096;2022-12-07T04:15:00;9.60;;;5.60;;
11211;SDS011;5663;50.864;12.096;2022-12-07T04:17:28;10.60;;;5.60;;
11211;SDS011;5663;50.864;12.096;2022-12-07T04:19:57;6.03;;;4.37;;
11211;SDS011;5663;50.864;12.096;2022-12-07T04:22:24;8.10;;;4.83;;
11211;SDS011;5663;50.864;12.096;2022-12-07T04:24:52;6.20;;;4.30;;
11211;SDS011;5663;50.864;12.096;2022-12-07T04:27:20;8.47;;;4.83;;
11211;SDS011;5663;50.864;12.096;2022-12-07T04:29:48;7.07;;;4.90;;
11211;SDS011;5663;50.864;12.096;2022-12-07T04:32:15;7.13;;;4.37;;
11211;SDS011;5663;50.864;12.096;2022-12-07T04:34:43;5.70;;;4.20;;
11211;SDS011;5663;50.864;12.096;2022-12-07T04:37:12;6.43;;;4.70;;
11211;SDS011;5663;50.864;12.096;2022-12-07T04:39:40;7.30;;;4.63;;
11211;SDS011;5663;50.864;12.096;2022-12-07T04:42:10;7.37;;;4.83;;
11211;SDS011;5663;50.864;12.096;2022-12-07T04:44:38;7.57;;;4.87;;
11211;SDS011;5663;50.864;12.096;2022-12-07T04:47:07;6.20;;;4.50;;
11211;SDS011;5663;50.864;12.096;2022-12-07T04:49:34;6.27;;;4.33;;
11211;SDS011;5663;50.864;12.096;2022-12-07T04:52:02;8.43;;;4.53;;
11211;SDS011;5663;50.864;12.096;2022-12-07T04:54:31;6.90;;;4.43;;
11211;SDS011;5663;50.864;12.096;2022-12-07T04:57:02;6.53;;;4.40;;
11211;SDS011;5663;50.864;12.096;2022-12-07T04:59:29;6.93;;;4.30;;
11211;SDS011;5663;50.864;12.096;2022-12-07T05:01:57;7.77;;;5.23;;
11211;SDS011;5663;50.864;12.096;2022-12-07T05:04:24;9.53;;;5.00;;
11211;SDS011;5663;50.864;12.096;2022-12-07T05:06:52;5.77;;;4.27;;
11211;SDS011;5663;50.864;12.096;2022-12-07T05:09:20;6.47;;;4.67;;
11211;SDS011;5663;50.864;12.096;2022-12-07T05:11:49;9.17;;;5.33;;
11211;SDS011;5663;50.864;12.096;2022-12-07T05:14:18;7.83;;;5.00;;
11211;SDS011;5663;50.864;12.096;2022-12-07T05:16:48;7.10;;;4.07;;
11211;SDS011;5663;50.864;12.096;2022-12-07T05:19:17;5.97;;;4.23;;
11211;SDS011;5663;50.864;12.096;2022-12-07T05:21:45;6.73;;;4.50;;
11211;SDS011;5663;50.864;12.096;2022-12-07T05:24:15;7.17;;;4.77;;
11211;SDS011;5663;50.864;12.096;2022-12-07T05:26:43;7.07;;;5.00;;
11211;SDS011;5663;50.864;12.096;2022-12-07T05:29:14;8.57;;;4.77;;
11211;SDS011;5663;50.864;12.096;2022-12-07T05:31:43;7.83;;;4.50;;
11211;SDS011;5663;50.864;12.096;2022-12-07T05:34:11;7.67;;;5.00;;
11211;SDS011;5663;50.864;12.096;2022-12-07T05:36:40;7.07;;;4.60;;
11211;SDS011;5663;50.864;12.096;2022-12-07T05:39:07;8.00;;;5.53;;
11211;SDS011;5663;50.864;12.096;2022-12-07T05:41:35;7.43;;;5.53;;
11211;SDS011;5663;50.864;12.096;2022-12-07T05:44:24;7.07;;;5.10;;
11211;SDS011;5663;50.864;12.096;2022-12-07T05:46:52;8.27;;;5.40;;
11211;SDS011;5663;50.864;12.096;2022-12-07T05:49:20;9.77;;;5.53;;
11211;SDS011;5663;50.864;12.096;2022-12-07T05:51:48;5.77;;;4.10;;
11211;SDS011;5663;50.864;12.096;2022-12-07T05:54:15;8.73;;;5.23;;
11211;SDS011;5663;50.864;12.096;2022-12-07T05:56:43;8.33;;;5.43;;
11211;SDS011;5663;50.864;12.096;2022-12-07T05:59:11;6.97;;;4.90;;
11211;SDS011;5663;50.864;12.096;2022-12-07T06:01:55;7.90;;;4.93;;
11211;SDS011;5663;50.864;12.096;2022-12-07T06:04:25;8.57;;;5.90;;
11211;SDS011;5663;50.864;12.096;2022-12-07T06:06:54;7.63;;;5.50;;
11211;SDS011;5663;50.864;12.096;2022-12-07T06:09:22;6.87;;;4.80;;
11211;SDS011;5663;50.864;12.096;2022-12-07T06:11:51;7.20;;;4.83;;
11211;SDS011;5663;50.864;12.096;2022-12-07T06:14:37;7.43;;;5.10;;
11211;SDS011;5663;50.864;12.096;2022-12-07T06:17:06;6.63;;;4.90;;
11211;SDS011;5663;50.864;12.096;2022-12-07T06:19:35;9.07;;;6.17;;
11211;SDS011;5663;50.864;12.096;2022-12-07T06:22:03;7.67;;;5.60;;
11211;SDS011;5663;50.864;12.096;2022-12-07T06:24:32;8.67;;;5.43;;
11211;SDS011;5663;50.864;12.096;2022-12-07T06:26:59;7.97;;;5.30;;
11211;SDS011;5663;50.864;12.096;2022-12-07T06:29:27;7.10;;;5.07;;
11211;SDS011;5663;50.864;12.096;2022-12-07T06:31:55;7.93;;;4.83;;
11211;SDS011;5663;50.864;12.096;2022-12-07T06:34:25;9.90;;;5.60;;
11211;SDS011;5663;50.864;12.096;2022-12-07T06:36:53;7.47;;;5.37;;
11211;SDS011;5663;50.864;12.096;2022-12-07T06:39:22;8.27;;;5.53;;
11211;SDS011;5663;50.864;12.096;2022-12-07T06:41:51;8.40;;;5.90;;
11211;SDS011;5663;50.864;12.096;2022-12-07T06:44:19;7.33;;;5.57;;
11211;SDS011;5663;50.864;12.096;2022-12-07T06:46:48;8.33;;;5.57;;
11211;SDS011;5663;50.864;12.096;2022-12-07T06:49:17;6.57;;;5.33;;
11211;SDS011;5663;50.864;12.096;2022-12-07T06:51:46;8.43;;;6.07;;
11211;SDS011;5663;50.864;12.096;2022-12-07T06:54:14;10.53;;;6.00;;
11211;SDS011;5663;50.864;12.096;2022-12-07T06:56:44;9.20;;;5.83;;
11211;SDS011;5663;50.864;12.096;2022-12-07T06:59:12;9.40;;;6.80;;
11211;SDS011;5663;50.864;12.096;2022-12-07T07:01:39;8.13;;;5.43;;
11211;SDS011;5663;50.864;12.096;2022-12-07T07:04:07;8.60;;;5.73;;
11211;SDS011;5663;50.864;12.096;2022-12-07T07:06:35;8.20;;;5.80;;
11211;SDS011;5663;50.864;12.096;2022-12-07T07:09:04;9.67;;;6.50;;
11211;SDS011;5663;50.864;12.096;2022-12-07T07:11:32;10.00;;;6.60;;
11211;SDS011;5663;50.864;12.096;2022-12-07T07:14:00;8.97;;;5.87;;
11211;SDS011;5663;50.864;12.096;2022-12-07T07:16:28;7.27;;;5.63;;
11211;SDS011;5663;50.864;12.096;2022-12-07T07:18:56;8.50;;;5.87;;
11211;SDS011;5663;50.864;12.096;2022-12-07T07:21:24;8.70;;;5.77;;
11211;SDS011;5663;50.864;12.096;2022-12-07T07:23:52;9.67;;;6.03;;
11211;SDS011;5663;50.864;12.096;2022-12-07T07:26:21;9.23;;;6.67;;
11211;SDS011;5663;50.864;12.096;2022-12-07T07:28:49;10.20;;;6.73;;
11211;SDS011;5663;50.864;12.096;2022-12-07T07:31:17;9.60;;;6.67;;
11211;SDS011;5663;50.864;12.096;2022-12-07T07:33:45;8.43;;;6.43;;
11211;SDS011;5663;50.864;12.096;2022-12-07T07:36:13;10.67;;;6.90;;
11211;SDS011;5663;50.864;12.096;2022-12-07T07:38:40;7.53;;;5.73;;
11211;SDS011;5663;50.864;12.096;2022-12-07T07:41:08;11.57;;;6.43;;
11211;SDS011;5663;50.864;12.096;2022-12-07T07:43:37;10.17;;;6.60;;
11211;SDS011;5663;50.864;12.096;2022-12-07T07:46:08;10.67;;;6.73;;
11211;SDS011;5663;50.864;12.096;2022-12-07T07:48:48;9.10;;;6.23;;
11211;SDS011;5663;50.864;12.096;2022-12-07T07:51:16;9.70;;;6.30;;
11211;SDS011;5663;50.864;12.096;2022-12-07T07:53:44;9.90;;;7.13;;
11211;SDS011;5663;50.864;12.096;2022-12-07T07:56:12;9.63;;;6.53;;
11211;SDS011;5663;50.864;12.096;2022-12-07T07:58:41;10.17;;;7.03;;
11211;SDS011;5663;50.864;12.096;2022-12-07T08:01:09;12.57;;;6.63;;
11211;SDS011;5663;50.864;12.096;2022-12-07T08:03:37;11.90;;;6.93;;
11211;SDS011;5663;50.864;12.096;2022-12-07T08:06:05;10.13;;;6.57;;
11211;SDS011;5663;50.864;12.096;2022-12-07T08:08:34;9.87;;;6.90;;
11211;SDS011;5663;50.864;12.096;2022-12-07T08:11:04;11.87;;;6.57;;
11211;SDS011;5663;50.864;12.096;2022-12-07T08:13:34;10.63;;;7.23;;
11211;SDS011;5663;50.864;12.096;2022-12-07T08:16:05;10.47;;;7.03;;
11211;SDS011;5663;50.864;12.096;2022-12-07T08:18:35;9.57;;;6.57;;
11211;SDS011;5663;50.864;12.096;2022-12-07T08:21:04;10.83;;;7.30;;
11211;SDS011;5663;50.864;12.096;2022-12-07T08:23:32;10.13;;;6.47;;
11211;SDS011;5663;50.864;12.096;2022-12-07T08:26:00;10.40;;;7.30;;
11211;SDS011;5663;50.864;12.096;2022-12-07T08:28:29;10.23;;;7.13;;
11211;SDS011;5663;50.864;12.096;2022-12-07T08:30:58;12.07;;;6.67;;
11211;SDS011;5663;50.864;12.096;2022-12-07T08:33:28;12.13;;;7.17;;
11211;SDS011;5663;50.864;12.096;2022-12-07T08:36:00;9.80;;;6.70;;
11211;SDS011;5663;50.864;12.096;2022-12-07T08:38:27;12.30;;;7.27;;
11211;SDS011;5663;50.864;12.096;2022-12-07T08:40:55;11.37;;;7.83;;
11211;SDS011;5663;50.864;12.096;2022-12-07T08:43:25;11.03;;;7.57;;
11211;SDS011;5663;50.864;12.096;2022-12-07T08:45:53;11.30;;;7.67;;
11211;SDS011;5663;50.864;12.096;2022-12-07T08:48:32;12.67;;;7.90;;
11211;SDS011;5663;50.864;12.096;2022-12-07T08:51:01;10.40;;;7.43;;
11211;SDS011;5663;50.864;12.096;2022-12-07T08:53:28;11.17;;;7.60;;
11211;SDS011;5663;50.864;12.096;2022-12-07T08:55:57;17.13;;;7.93;;
11211;SDS011;5663;50.864;12.096;2022-12-07T08:58:25;11.53;;;7.63;;
11211;SDS011;5663;50.864;12.096;2022-12-07T09:00:53;12.10;;;8.13;;
11211;SDS011;5663;50.864;12.096;2022-12-07T09:03:21;10.10;;;6.67;;
11211;SDS011;5663;50.864;12.096;2022-12-07T09:05:50;11.07;;;8.03;;
11211;SDS011;5663;50.864;12.096;2022-12-07T09:08:21;10.30;;;7.30;;
11211;SDS011;5663;50.864;12.096;2022-12-07T09:10:53;11.03;;;7.37;;
11211;SDS011;5663;50.864;12.096;2022-12-07T09:13:21;11.63;;;7.53;;
11211;SDS011;5663;50.864;12.096;2022-12-07T09:15:48;12.57;;;8.37;;
11211;SDS011;5663;50.864;12.096;2022-12-07T09:18:16;10.90;;;7.83;;
11211;SDS011;5663;50.864;12.096;2022-12-07T09:20:44;11.40;;;7.37;;
11211;SDS011;5663;50.864;12.096;2022-12-07T09:23:13;10.33;;;7.10;;
11211;SDS011;5663;50.864;12.096;2022-12-07T09:25:41;11.63;;;8.03;;
11211;SDS011;5663;50.864;12.096;2022-12-07T09:28:09;11.00;;;7.93;;
11211;SDS011;5663;50.864;12.096;2022-12-07T09:30:37;11.50;;;7.77;;
11211;SDS011;5663;50.864;12.096;2022-12-07T09:33:05;12.77;;;7.90;;
11211;SDS011;5663;50.864;12.096;2022-12-07T09:35:32;10.83;;;7.27;;
11211;SDS011;5663;50.864;12.096;2022-12-07T09:38:01;9.40;;;7.20;;
11211;SDS011;5663;50.864;12.096;2022-12-07T09:40:30;11.33;;;6.87;;
11211;SDS011;5663;50.864;12.096;2022-12-07T09:43:00;9.57;;;6.43;;
11211;SDS011;5663;50.864;12.096;2022-12-07T09:45:29;9.30;;;6.20;;
11211;SDS011;5663;50.864;12.096;2022-12-07T09:48:02;9.53;;;5.80;;
11211;SDS011;5663;50.864;12.096;2022-12-07T09:50:30;8.93;;;6.07;;
11211;SDS011;5663;50.864;12.096;2022-12-07T09:53:03;9.47;;;6.00;;
11211;SDS011;5663;50.864;12.096;2022-12-07T09:55:36;9.03;;;6.20;;
11211;SDS011;5663;50.864;12.096;2022-12-07T09:58:05;11.00;;;6.60;;
11211;SDS011;5663;50.864;12.096;2022-12-07T10:00:32;10.70;;;5.63;;
11211;SDS011;5663;50.864;12.096;2022-12-07T10:03:01;8.27;;;5.93;;
11211;SDS011;5663;50.864;12.096;2022-12-07T10:05:30;9.13;;;5.67;;
11211;SDS011;5663;50.864;12.096;2022-12-07T10:08:02;8.07;;;5.70;;
11211;SDS011;5663;50.864;12.096;2022-12-07T10:10:31;8.33;;;5.67;;
11211;SDS011;5663;50.864;12.096;2022-12-07T10:13:02;8.53;;;5.50;;
11211;SDS011;5663;50.864;12.096;2022-12-07T10:15:42;8.17;;;5.30;;
11211;SDS011;5663;50.864;12.096;2022-12-07T10:21:13;8.40;;;5.70;;
11211;SDS011;5663;50.864;12.096;2022-12-07T10:23:42;9.23;;;5.70;;
11211;SDS011;5663;50.864;12.096;2022-12-07T10:26:28;7.37;;;5.60;;
11211;SDS011;5663;50.864;12.096;2022-12-07T10:29:04;8.37;;;4.33;;
11211;SDS011;5663;50.864;12.096;2022-12-07T10:31:43;7.07;;;4.97;;
11211;SDS011;5663;50.864;12.096;2022-12-07T10:34:20;6.80;;;4.53;;
11211;SDS011;5663;50.864;12.096;2022-12-07T10:36:50;10.10;;;5.70;;
11211;SDS011;5663;50.864;12.096;2022-12-07T10:39:19;5.70;;;4.07;;
11211;SDS011;5663;50.864;12.096;2022-12-07T10:41:54;8.13;;;4.97;;
11211;SDS011;5663;50.864;12.096;2022-12-07T10:44:26;6.27;;;4.57;;
11211;SDS011;5663;50.864;12.096;2022-12-07T10:56:00;7.17;;;4.07;;
11211;SDS011;5663;50.864;12.096;2022-12-07T10:58:46;8.70;;;3.90;;
11211;SDS011;5663;50.864;12.096;2022-12-07T11:01:25;6.10;;;3.90;;
11211;SDS011;5663;50.864;12.096;2022-12-07T11:04:06;6.60;;;3.97;;
11211;SDS011;5663;50.864;12.096;2022-12-07T11:06:46;4.67;;;3.80;;
11211;SDS011;5663;50.864;12.096;2022-12-07T11:09:29;4.93;;;3.53;;
11211;SDS011;5663;50.864;12.096;2022-12-07T11:12:16;6.40;;;3.67;;
11211;SDS011;5663;50.864;12.096;2022-12-07T11:14:54;5.33;;;3.50;;
11211;SDS011;5663;50.864;12.096;2022-12-07T11:17:32;6.80;;;3.77;;
11211;SDS011;5663;50.864;12.096;2022-12-07T11:20:12;4.50;;;3.27;;
11211;SDS011;5663;50.864;12.096;2022-12-07T11:22:51;6.33;;;3.67;;
11211;SDS011;5663;50.864;12.096;2022-12-07T11:25:30;6.57;;;3.60;;
11211;SDS011;5663;50.864;12.096;2022-12-07T11:28:11;4.40;;;3.17;;
11211;SDS011;5663;50.864;12.096;2022-12-07T11:30:51;5.47;;;2.93;;
11211;SDS011;5663;50.864;12.096;2022-12-07T11:33:29;6.73;;;3.43;;
11211;SDS011;5663;50.864;12.096;2022-12-07T11:36:04;4.33;;;3.20;;
11211;SDS011;5663;50.864;12.096;2022-12-07T11:38:42;5.37;;;2.93;;
11211;SDS011;5663;50.864;12.096;2022-12-07T11:41:16;5.27;;;2.90;;
11211;SDS011;5663;50.864;12.096;2022-12-07T11:43:53;6.37;;;2.90;;
11211;SDS011;5663;50.864;12.096;2022-12-07T11:46:24;4.53;;;2.80;;
11211;SDS011;5663;50.864;12.096;2022-12-07T11:48:57;5.77;;;3.10;;
11211;SDS011;5663;50.864;12.096;2022-12-07T11:51:33;4.87;;;3.40;;
11211;SDS011;5663;50.864;12.096;2022-12-07T11:54:05;4.10;;;2.90;;
11211;SDS011;5663;50.864;12.096;2022-12-07T11:56:41;4.77;;;2.60;;
11211;SDS011;5663;50.864;12.096;2022-12-07T11:59:12;4.23;;;2.70;;
11211;SDS011;5663;50.864;12.096;2022-12-07T12:01:48;5.97;;;2.63;;
11211;SDS011;5663;50.864;12.096;2022-12-07T12:04:30;4.17;;;2.33;;
11211;SDS011;5663;50.864;12.096;2022-12-07T12:07:10;5.03;;;2.40;;
11211;SDS011;5663;50.864;12.096;2022-12-07T12:09:45;4.40;;;2.40;;
11211;SDS011;5663;50.864;12.096;2022-12-07T12:12:31;4.67;;;2.80;;
11211;SDS011;5663;50.864;12.096;2022-12-07T12:15:30;6.60;;;2.73;;
11211;SDS011;5663;50.864;12.096;2022-12-07T12:18:22;5.67;;;2.77;;
11211;SDS011;5663;50.864;12.096;2022-12-07T12:21:21;6.03;;;3.20;;
11211;SDS011;5663;50.864;12.096;2022-12-07T12:23:55;4.87;;;2.60;;
11211;SDS011;5663;50.864;12.096;2022-12-07T12:26:27;4.33;;;2.43;;
11211;SDS011;5663;50.864;12.096;2022-12-07T12:28:58;4.80;;;2.50;;
11211;SDS011;5663;50.864;12.096;2022-12-07T12:31:31;4.10;;;2.50;;
11211;SDS011;5663;50.864;12.096;2022-12-07T12:34:03;3.67;;;2.10;;
11211;SDS011;5663;50.864;12.096;2022-12-07T12:39:22;3.73;;;2.37;;
11211;SDS011;5663;50.864;12.096;2022-12-07T12:41:52;5.20;;;2.47;;
11211;SDS011;5663;50.864;12.096;2022-12-07T12:50:31;5.50;;;2.63;;
11211;SDS011;5663;50.864;12.096;2022-12-07T12:56:21;3.73;;;2.17;;
11211;SDS011;5663;50.864;12.096;2022-12-07T13:02:15;4.30;;;2.13;;
11211;SDS011;5663;50.864;12.096;2022-12-07T13:04:51;4.00;;;2.20;;
11211;SDS011;5663;50.864;12.096;2022-12-07T13:13:30;5.23;;;2.00;;
11211;SDS011;5663;50.864;12.096;2022-12-07T13:22:39;2.40;;;1.80;;
11211;SDS011;5663;50.864;12.096;2022-12-07T13:25:11;5.17;;;2.10;;
11211;SDS011;5663;50.864;12.096;2022-12-07T13:27:48;3.70;;;2.07;;
11211;SDS011;5663;50.864;12.096;2022-12-07T13:30:23;5.50;;;2.33;;
11211;SDS011;5663;50.864;12.096;2022-12-07T13:32:51;3.73;;;1.90;;
11211;SDS011;5663;50.864;12.096;2022-12-07T13:35:31;3.47;;;1.93;;
11211;SDS011;5663;50.864;12.096;2022-12-07T13:38:01;2.73;;;1.73;;
11211;SDS011;5663;50.864;12.096;2022-12-07T13:40:31;2.23;;;1.77;;
11211;SDS011;5663;50.864;12.096;2022-12-07T13:43:12;2.77;;;1.80;;
11211;SDS011;5663;50.864;12.096;2022-12-07T13:45:43;4.20;;;1.80;;
11211;SDS011;5663;50.864;12.096;2022-12-07T13:48:20;3.77;;;1.80;;
11211;SDS011;5663;50.864;12.096;2022-12-07T13:50:55;2.33;;;1.70;;
11211;SDS011;5663;50.864;12.096;2022-12-07T13:53:24;3.00;;;2.03;;
11211;SDS011;5663;50.864;12.096;2022-12-07T13:55:56;3.43;;;2.30;;
11211;SDS011;5663;50.864;12.096;2022-12-07T13:58:30;4.03;;;2.10;;
11211;SDS011;5663;50.864;12.096;2022-12-07T14:00:59;3.73;;;2.10;;
11211;SDS011;5663;50.864;12.096;2022-12-07T14:03:29;3.03;;;1.70;;
11211;SDS011;5663;50.864;12.096;2022-12-07T14:06:13;3.70;;;1.80;;
11211;SDS011;5663;50.864;12.096;2022-12-07T14:08:47;2.67;;;1.80;;
11211;SDS011;5663;50.864;12.096;2022-12-07T14:11:16;2.63;;;1.80;;
11211;SDS011;5663;50.864;12.096;2022-12-07T14:13:57;3.73;;;1.80;;
11211;SDS011;5663;50.864;12.096;2022-12-07T14:16:28;3.00;;;1.77;;
11211;SDS011;5663;50.864;12.096;2022-12-07T14:19:00;3.63;;;2.00;;
11211;SDS011;5663;50.864;12.096;2022-12-07T14:21:32;3.70;;;1.90;;
11211;SDS011;5663;50.864;12.096;2022-12-07T14:24:12;3.03;;;1.93;;
11211;SDS011;5663;50.864;12.096;2022-12-07T14:26:44;3.97;;;2.27;;
11211;SDS011;5663;50.864;12.096;2022-12-07T14:29:21;5.60;;;2.60;;
11211;SDS011;5663;50.864;12.096;2022-12-07T14:31:50;3.97;;;2.73;;
11211;SDS011;5663;50.864;12.096;2022-12-07T14:34:19;3.70;;;2.47;;
11211;SDS011;5663;50.864;12.096;2022-12-07T14:36:47;4.83;;;2.40;;
11211;SDS011;5663;50.864;12.096;2022-12-07T14:39:16;3.00;;;2.00;;
11211;SDS011;5663;50.864;12.096;2022-12-07T14:41:44;2.33;;;1.83;;
11211;SDS011;5663;50.864;12.096;2022-12-07T14:44:18;3.83;;;1.80;;
11211;SDS011;5663;50.864;12.096;2022-12-07T14:46:48;3.53;;;2.00;;
11211;SDS011;5663;50.864;12.096;2022-12-07T14:49:17;4.70;;;1.90;;
11211;SDS011;5663;50.864;12.096;2022-12-07T14:51:47;2.43;;;2.03;;
11211;SDS011;5663;50.864;12.096;2022-12-07T14:54:17;4.40;;;2.80;;
11211;SDS011;5663;50.864;12.096;2022-12-07T14:56:45;5.07;;;2.53;;
11211;SDS011;5663;50.864;12.096;2022-12-07T14:59:15;4.07;;;2.00;;
11211;SDS011;5663;50.864;12.096;2022-12-07T15:01:43;2.80;;;2.40;;
11211;SDS011;5663;50.864;12.096;2022-12-07T15:04:13;3.90;;;2.30;;
11211;SDS011;5663;50.864;12.096;2022-12-07T15:06:41;5.47;;;3.23;;
11211;SDS011;5663;50.864;12.096;2022-12-07T15:09:10;8.50;;;4.07;;
11211;SDS011;5663;50.864;12.096;2022-12-07T15:11:38;9.00;;;3.80;;
11211;SDS011;5663;50.864;12.096;2022-12-07T15:14:07;5.60;;;3.13;;
11211;SDS011;5663;50.864;12.096;2022-12-07T15:16:37;6.23;;;3.00;;
11211;SDS011;5663;50.864;12.096;2022-12-07T15:19:16;5.77;;;2.93;;
11211;SDS011;5663;50.864;12.096;2022-12-07T15:21:49;3.70;;;2.30;;
11211;SDS011;5663;50.864;12.096;2022-12-07T15:24:18;4.57;;;2.37;;
11211;SDS011;5663;50.864;12.096;2022-12-07T15:26:49;3.83;;;2.27;;
11211;SDS011;5663;50.864;12.096;2022-12-07T15:29:18;3.77;;;2.30;;
11211;SDS011;5663;50.864;12.096;2022-12-07T15:31:47;4.60;;;2.00;;
11211;SDS011;5663;50.864;12.096;2022-12-07T15:34:19;5.00;;;2.10;;
11211;SDS011;5663;50.864;12.096;2022-12-07T15:36:47;2.40;;;2.07;;
11211;SDS011;5663;50.864;12.096;2022-12-07T15:39:15;4.27;;;2.20;;
11211;SDS011;5663;50.864;12.096;2022-12-07T15:41:44;2.93;;;1.90;;
11211;SDS011;5663;50.864;12.096;2022-12-07T15:44:13;3.47;;;2.00;;
11211;SDS011;5663;50.864;12.096;2022-12-07T15:46:59;7.10;;;2.23;;
11211;SDS011;5663;50.864;12.096;2022-12-07T15:49:28;3.37;;;2.20;;
11211;SDS011;5663;50.864;12.096;2022-12-07T15:51:56;4.87;;;2.27;;